Adamsville, TN

7:13 AM CDT on August 30, 2014 (GMT -0500)
City | Change Station
CLOSE
Current Station
Personal Weather Station
Location: Corinth, MS
Elevation: 435 ft
Nearby Weather Stations

Elev 435 ft 34.95 °N, 88.50 °W | Updated 14 minutes ago

Rain
Rain
73.0 °F
Feels Like 72 °F
N
0.0
Wind Variable Wind from SSE
Gusts 1.0 mph

Today
High -- | Low -- °F
--% Chance of Precip.
Yesterday
High -- | Low -- °F
Precip. -- in
6:24 AM 7:23 PM
Waxing Crescent, 21% visible
Pressure 30.06 in
Visibility 7.0 miles
Clouds Few 3600 ft
Mostly Cloudy 9500 ft
Overcast 12000 ft
Heat Index 72 °F
Dew Point 69 °F
Humidity 87%
Rainfall 0.10 in
Snow Depth Not available.
UV 0 out of 12
Pollen 2.20 out of 12
Air Quality Not available.
Flu Activity Not available.
METAR KCRX 301155Z AUTO 11005KT 7SM -DZ FEW036 BKN095 OVC120 22/21 A3006 RMK AO2 LTG DSNT NW

More Conditions Fewer Conditions

Pressure 30.06 in
Visibility 7.0 miles
Clouds Few 3600 ft
Mostly Cloudy 9500 ft
Overcast 12000 ft
Heat Index 72 °F
Dew Point 69 °F
Humidity 87%
Rainfall 0.10 in
Snow Depth Not available.
UV 0 out of 12
Pollen 2.20 out of 12
Air Quality Not available.
Flu Activity Not available.
METAR KCRX 301155Z AUTO 11005KT 7SM -DZ FEW036 BKN095 OVC120 22/21 A3006 RMK AO2 LTG DSNT NW

More Conditions Fewer Conditions

10-Day Weather Forecast

Almanac

Astronomy

Aug. 30, 2014 Rise Set
Actual Time 6:24 AM CDT 7:23 PM CDT
Civil Twilight 5:58 AM CDT 7:49 PM CDT
Nautical Twilight 5:27 AM CDT 8:19 PM CDT
Astronomical Twilight 4:55 AM CDT 8:51 PM CDT
Moon 11:00 AM CDT 10:09 PM CDT
Length of Visible Light 13h 50m
Length of Day
12h 58m
Tomorrow will be 2m 7s shorter.
Waxing Crescent, 21% of the Moon is Illuminated
Today
Waxing Crescent
Sep 2
First Quarter
Sep 8
Full
Sep 15
Last Quarter
Sep 24
New

Today's Extremes

State Highs State Lows

Community

WunderPhotos

Upload Photos

1,748,500 photos uploaded!

WunderBlogs® & News

By Dr. Jeff Masters
Director of Meteorology, Weather Underground
By Kari Strenfel
Meteorologist, Weather Underground
By Christopher C. Burt
Weather Historian, Weather Underground
August 30, 2014
August 30, 2014
August 30, 2014

Nearby

Snow Depth

Station Depth Elevation
No new snow has been reported.

Earthquake Activity

City Distance Mag. Time & Date
No recent earthquake activity has been reported nearby.
Minimum magnitude displayed is 2.5.

Coastal Water Temperatures

Place Temperature
No Stations Reporting

Nearby Weather Stations